WXM80 ListenWXM80 Stop

You find our weather info also at:

UK Metoffice

WeatherCloud

Weather Underground

Northeastern Weather Network

AWEKAS

Citizen Weather Observer Program (CWOP)

HAMweather, WeatherForYou, PWS Weather


Weather Underground History page Text

Daily Summary for January 13, 2017 Units:  English    Metric   Both
« Previous Day
Next Day »
Daily Weekly Monthly Yearly Custom
  High: Low: Average:
Temperature: 60.4 °F 31.1 °F 45.4 °F
Dew Point: 54.5 °F 17.6 °F 34.3 °F
Humidity: 85 % 46 % 66 %
Wind Speed: 10.5 mph 1.1 mph 5.8 mph
Wind Gust: 21.9 mph - -
Wind:- - WSW
Pressure: 30.67 in 30.02 in -
Precipitation: 0.00 in    
Historical Graphs
 
 
Tabular Data for January 13, 2017
Time Temperature Dew Point Pressure Wind Wind Speed Wind Gust Humidity Rainfall Rate (Hourly)
00:04 60.3 °F 53.1 °F 30.03 in SW 6.0 mph 14.0 mph 77 % 0.00 in
00:09 60.3 °F 53.1 °F 30.02 in SW 6.0 mph 10.0 mph 77 % 0.00 in
00:14 60.2 °F 53.0 °F 30.02 in SW 5.0 mph 9.0 mph 77 % 0.00 in
00:19 60.1 °F 52.9 °F 30.03 in SW 6.0 mph 13.0 mph 77 % 0.00 in
00:24 60.0 °F 52.8 °F 30.03 in SW 6.0 mph 10.0 mph 77 % 0.00 in
00:29 59.9 °F 53.0 °F 30.03 in SW 5.0 mph 10.0 mph 78 % 0.00 in
00:34 59.9 °F 53.0 °F 30.04 in SW 3.0 mph 12.0 mph 78 % 0.00 in
00:39 59.8 °F 52.9 °F 30.03 in SW 3.0 mph 10.0 mph 78 % 0.00 in
00:44 59.8 °F 52.9 °F 30.04 in SW 3.0 mph 9.0 mph 78 % 0.00 in
00:49 59.8 °F 53.3 °F 30.04 in SW 5.0 mph 12.0 mph 79 % 0.00 in
00:54 59.9 °F 53.4 °F 30.04 in SW 5.0 mph 8.0 mph 79 % 0.00 in
00:59 60.0 °F 53.8 °F 30.04 in SW 3.2 mph 8.1 mph 80 % 0.00 in
01:04 60.1 °F 53.9 °F 30.04 in WSW 6.2 mph 10.4 mph 80 % 0.00 in
01:09 60.2 °F 54.0 °F 30.05 in West 5.6 mph 8.1 mph 80 % 0.00 in
01:14 60.3 °F 54.1 °F 30.05 in SW 3.9 mph 9.2 mph 80 % 0.00 in
01:19 60.3 °F 54.1 °F 30.05 in WSW 5.3 mph 8.0 mph 80 % 0.00 in
01:24 60.4 °F 54.2 °F 30.05 in WSW 6.5 mph 9.2 mph 80 % 0.00 in
01:29 60.4 °F 54.2 °F 30.05 in SW 2.5 mph 3.5 mph 80 % 0.00 in
01:34 60.4 °F 54.2 °F 30.06 in WSW 6.8 mph 12.7 mph 80 % 0.00 in
01:39 60.4 °F 54.5 °F 30.06 in WSW 4.3 mph 6.0 mph 81 % 0.00 in
01:45 60.4 °F 54.5 °F 30.06 in WSW 3.2 mph 5.8 mph 81 % 0.00 in
01:50 60.3 °F 54.4 °F 30.07 in West 3.7 mph 8.1 mph 81 % 0.00 in
01:55 60.2 °F 54.3 °F 30.07 in SW 3.4 mph 10.4 mph 81 % 0.00 in
02:00 60.0 °F 54.2 °F 30.07 in WSW 5.4 mph 9.2 mph 81 % 0.00 in
02:05 59.8 °F 54.0 °F 30.07 in WSW 3.1 mph 9.2 mph 81 % 0.00 in
02:10 59.7 °F 54.2 °F 30.07 in West 4.5 mph 11.5 mph 82 % 0.00 in
02:15 59.5 °F 54.0 °F 30.08 in SSW 1.4 mph 11.5 mph 82 % 0.00 in
02:20 59.4 °F 54.2 °F 30.08 in WSW 5.5 mph 10.4 mph 83 % 0.00 in
02:25 59.3 °F 54.1 °F 30.08 in WSW 8.0 mph 11.5 mph 83 % 0.00 in
02:30 59.1 °F 53.9 °F 30.08 in West 4.6 mph 8.1 mph 83 % 0.00 in
02:35 59.0 °F 53.8 °F 30.08 in SW 6.3 mph 11.5 mph 83 % 0.00 in
02:40 58.8 °F 53.6 °F 30.09 in WSW 3.3 mph 4.6 mph 83 % 0.00 in
02:45 58.6 °F 53.5 °F 30.09 in SW 4.6 mph 10.4 mph 83 % 0.00 in
02:50 58.4 °F 53.6 °F 30.09 in WSW 5.5 mph 8.1 mph 84 % 0.00 in
02:55 58.3 °F 53.5 °F 30.09 in West 4.3 mph 9.2 mph 84 % 0.00 in
03:00 58.2 °F 53.4 °F 30.09 in WSW 4.0 mph 12.0 mph 84 % 0.00 in
03:06 58.1 °F 53.6 °F 30.09 in SW 7.4 mph 11.5 mph 85 % 0.00 in
03:11 58.1 °F 53.6 °F 30.09 in WSW 5.6 mph 9.2 mph 85 % 0.00 in
03:16 58.0 °F 53.5 °F 30.09 in West 2.3 mph 5.0 mph 85 % 0.00 in
03:21 57.9 °F 53.4 °F 30.09 in WSW 6.3 mph 9.2 mph 85 % 0.00 in
03:26 57.8 °F 53.3 °F 30.10 in SW 4.1 mph 10.0 mph 85 % 0.00 in
03:31 57.8 °F 53.3 °F 30.10 in West 2.5 mph 8.0 mph 85 % 0.00 in
03:36 57.7 °F 53.2 °F 30.09 in SW 2.8 mph 8.0 mph 85 % 0.00 in
03:41 57.5 °F 53.0 °F 30.09 in West 4.2 mph 8.0 mph 85 % 0.00 in
03:46 57.3 °F 52.8 °F 30.10 in WSW 3.8 mph 8.1 mph 85 % 0.00 in
03:51 57.1 °F 52.6 °F 30.10 in West 1.1 mph 7.0 mph 85 % 0.00 in
03:56 57.0 °F 52.5 °F 30.10 in WNW 2.9 mph 5.8 mph 85 % 0.00 in
04:01 56.8 °F 52.3 °F 30.10 in SW 3.8 mph 5.8 mph 85 % 0.00 in
04:06 56.7 °F 52.2 °F 30.11 in West 2.0 mph 7.0 mph 85 % 0.00 in
04:11 56.5 °F 52.0 °F 30.11 in WSW 2.6 mph 5.0 mph 85 % 0.00 in
04:16 56.3 °F 51.8 °F 30.11 in WSW 2.0 mph 3.5 mph 85 % 0.00 in
04:21 56.1 °F 51.3 °F 30.12 in WSW 2.0 mph 5.8 mph 84 % 0.00 in
04:26 55.8 °F 51.0 °F 30.12 in WSW 3.8 mph 6.9 mph 84 % 0.00 in
04:31 55.6 °F 50.5 °F 30.13 in WNW 3.6 mph 5.8 mph 83 % 0.00 in
04:36 55.5 °F 49.8 °F 30.13 in WNW 5.3 mph 10.0 mph 81 % 0.00 in
04:41 55.5 °F 49.4 °F 30.13 in SW 6.2 mph 11.5 mph 80 % 0.00 in
04:46 55.6 °F 49.2 °F 30.13 in SW 7.2 mph 10.4 mph 79 % 0.00 in
04:52 55.7 °F 49.3 °F 30.14 in West 6.8 mph 9.2 mph 79 % 0.00 in
04:57 55.7 °F 48.9 °F 30.15 in NW 5.2 mph 6.9 mph 78 % 0.00 in
05:02 55.6 °F 48.8 °F 30.15 in WNW 3.4 mph 4.0 mph 78 % 0.00 in
05:07 55.4 °F 48.7 °F 30.15 in WSW 3.6 mph 5.0 mph 78 % 0.00 in
05:12 55.1 °F 48.4 °F 30.16 in WNW 4.0 mph 6.9 mph 78 % 0.00 in
05:17 54.9 °F 48.2 °F 30.16 in West 4.5 mph 11.5 mph 78 % 0.00 in
05:22 54.4 °F 47.3 °F 30.17 in West 5.5 mph 9.2 mph 77 % 0.00 in
05:27 53.7 °F 46.7 °F 30.18 in NNW 3.9 mph 6.9 mph 77 % 0.00 in
05:32 52.7 °F 45.7 °F 30.18 in NW 5.1 mph 10.4 mph 77 % 0.00 in
05:37 51.9 °F 45.3 °F 30.19 in NW 3.5 mph 8.1 mph 78 % 0.00 in
05:42 51.2 °F 44.9 °F 30.19 in West 2.7 mph 8.1 mph 79 % 0.00 in
05:47 50.6 °F 44.3 °F 30.19 in WNW 3.0 mph 4.6 mph 79 % 0.00 in
05:52 49.9 °F 44.0 °F 30.20 in WNW 3.6 mph 10.4 mph 80 % 0.00 in
05:57 49.4 °F 43.8 °F 30.20 in WNW 2.8 mph 6.0 mph 81 % 0.00 in
06:02 48.9 °F 43.3 °F 30.21 in West 4.5 mph 13.0 mph 81 % 0.00 in
06:08 48.4 °F 43.2 °F 30.21 in WNW 4.9 mph 9.0 mph 82 % 0.00 in
06:13 48.1 °F 42.5 °F 30.21 in NW 4.5 mph 9.2 mph 81 % 0.00 in
06:18 47.9 °F 42.7 °F 30.22 in NW 2.3 mph 5.8 mph 82 % 0.00 in
06:23 47.7 °F 42.2 °F 30.23 in West 4.8 mph 6.9 mph 81 % 0.00 in
06:28 47.5 °F 42.0 °F 30.23 in North 3.1 mph 8.0 mph 81 % 0.00 in
06:33 47.3 °F 41.8 °F 30.24 in NNW 3.4 mph 6.9 mph 81 % 0.00 in
06:38 47.0 °F 41.5 °F 30.25 in WSW 2.5 mph 3.5 mph 81 % 0.00 in
06:43 46.9 °F 41.4 °F 30.25 in West 3.7 mph 5.8 mph 81 % 0.00 in
06:48 46.8 °F 41.3 °F 30.26 in WNW 5.6 mph 9.2 mph 81 % 0.00 in
06:53 46.7 °F 40.9 °F 30.25 in WNW 3.0 mph 9.2 mph 80 % 0.00 in
06:58 46.6 °F 40.4 °F 30.26 in WNW 8.8 mph 15.0 mph 79 % 0.00 in
07:03 46.7 °F 40.2 °F 30.26 in WNW 1.2 mph 3.5 mph 78 % 0.00 in
07:08 46.7 °F 40.2 °F 30.26 in NW 4.3 mph 6.9 mph 78 % 0.00 in
07:13 46.6 °F 39.8 °F 30.26 in WNW 3.5 mph 7.0 mph 77 % 0.00 in
07:19 46.5 °F 39.7 °F 30.26 in NW 5.6 mph 12.0 mph 77 % 0.00 in
07:24 46.4 °F 39.2 °F 30.27 in WNW 4.5 mph 8.1 mph 76 % 0.00 in
07:29 46.3 °F 39.1 °F 30.27 in NW 4.6 mph 8.1 mph 76 % 0.00 in
07:34 46.1 °F 39.0 °F 30.28 in WNW 2.8 mph 6.9 mph 76 % 0.00 in
07:39 45.9 °F 38.8 °F 30.28 in NW 6.3 mph 9.2 mph 76 % 0.00 in
07:44 45.7 °F 38.6 °F 30.28 in WNW 4.0 mph 6.9 mph 76 % 0.00 in
07:49 45.6 °F 38.5 °F 30.28 in NW 2.6 mph 7.0 mph 76 % 0.00 in
07:54 45.5 °F 38.4 °F 30.29 in WNW 5.0 mph 12.0 mph 76 % 0.00 in
07:59 45.4 °F 37.6 °F 30.29 in WSW 5.8 mph 10.4 mph 74 % 0.00 in
08:04 45.4 °F 37.6 °F 30.30 in WNW 6.2 mph 10.4 mph 74 % 0.00 in
08:09 45.4 °F 37.6 °F 30.30 in NNW 5.4 mph 10.4 mph 74 % 0.00 in
08:14 45.4 °F 37.2 °F 30.30 in NW 6.2 mph 11.5 mph 73 % 0.00 in
08:19 45.5 °F 37.3 °F 30.30 in NNW 1.8 mph 6.9 mph 73 % 0.00 in
08:24 45.5 °F 37.3 °F 30.31 in West 6.9 mph 12.7 mph 73 % 0.00 in
08:29 45.5 °F 37.3 °F 30.32 in NW 5.7 mph 10.0 mph 73 % 0.00 in
08:32 45.4 °F 37.2 °F 30.32 in WNW 8.1 mph 13.8 mph 73 % 0.00 in
08:37 45.4 °F 37.2 °F 30.32 in NNW 4.3 mph 9.2 mph 73 % 0.00 in
08:42 45.4 °F 37.2 °F 30.32 in WNW 6.1 mph 11.5 mph 73 % 0.00 in
08:47 45.4 °F 37.2 °F 30.32 in WNW 3.8 mph 7.0 mph 73 % 0.00 in
08:52 45.4 °F 37.2 °F 30.33 in NW 4.7 mph 10.4 mph 73 % 0.00 in
08:57 45.4 °F 37.2 °F 30.33 in WNW 5.8 mph 9.2 mph 73 % 0.00 in
09:02 45.4 °F 36.9 °F 30.33 in WNW 8.8 mph 13.0 mph 72 % 0.00 in
09:08 45.4 °F 36.9 °F 30.33 in WNW 1.8 mph 9.2 mph 72 % 0.00 in
09:13 45.4 °F 36.9 °F 30.33 in NNE 6.1 mph 9.0 mph 72 % 0.00 in
09:18 45.5 °F 36.6 °F 30.34 in WNW 6.7 mph 15.0 mph 71 % 0.00 in
09:23 45.6 °F 36.4 °F 30.34 in WNW 6.9 mph 13.0 mph 70 % 0.00 in
09:28 45.8 °F 36.2 °F 30.34 in WNW 1.3 mph 6.9 mph 69 % 0.00 in
09:33 46.0 °F 36.4 °F 30.34 in West 2.2 mph 7.0 mph 69 % 0.00 in
09:38 46.2 °F 36.6 °F 30.34 in NW 1.3 mph 3.5 mph 69 % 0.00 in
09:43 46.5 °F 36.5 °F 30.34 in WNW 7.0 mph 11.5 mph 68 % 0.00 in
09:48 46.7 °F 36.7 °F 30.35 in WNW 6.3 mph 11.5 mph 68 % 0.00 in
09:53 46.7 °F 36.7 °F 30.35 in WNW 6.5 mph 11.0 mph 68 % 0.00 in
09:58 46.8 °F 36.8 °F 30.35 in NW 6.8 mph 12.7 mph 68 % 0.00 in
10:03 46.9 °F 36.9 °F 30.36 in NW 4.6 mph 9.2 mph 68 % 0.00 in
10:13 46.9 °F 35.7 °F 30.36 in NW 4.3 mph 10.4 mph 65 % 0.00 in
10:18 47.0 °F 35.4 °F 30.36 in NNW 7.2 mph 15.0 mph 64 % 0.00 in
10:24 47.0 °F 35.0 °F 30.36 in NW 7.0 mph 11.5 mph 63 % 0.00 in
10:29 47.0 °F 35.4 °F 30.36 in WNW 7.9 mph 11.5 mph 64 % 0.00 in
10:34 47.0 °F 35.4 °F 30.36 in WSW 5.2 mph 6.0 mph 64 % 0.00 in
10:39 47.2 °F 35.2 °F 30.36 in NW 1.6 mph 3.5 mph 63 % 0.00 in
10:44 47.3 °F 35.3 °F 30.37 in NW 2.9 mph 6.9 mph 63 % 0.00 in
10:49 47.4 °F 35.0 °F 30.36 in NW 6.4 mph 11.5 mph 62 % 0.00 in
10:54 47.5 °F 35.1 °F 30.36 in NW 4.1 mph 9.2 mph 62 % 0.00 in
10:59 47.6 °F 35.2 °F 30.36 in NW 3.9 mph 10.4 mph 62 % 0.00 in
11:04 47.6 °F 34.8 °F 30.36 in NW 5.1 mph 11.5 mph 61 % 0.00 in
11:09 47.4 °F 34.2 °F 30.36 in WNW 6.6 mph 18.4 mph 60 % 0.00 in
11:14 47.2 °F 32.3 °F 30.36 in WNW 8.8 mph 15.0 mph 56 % 0.00 in
11:19 47.0 °F 31.2 °F 30.36 in WNW 3.2 mph 12.7 mph 54 % 0.00 in
11:24 46.7 °F 30.9 °F 30.36 in WNW 8.2 mph 11.5 mph 54 % 0.00 in
11:29 46.5 °F 31.2 °F 30.36 in NW 8.0 mph 11.5 mph 55 % 0.00 in
11:34 46.4 °F 30.6 °F 30.36 in NW 6.4 mph 10.4 mph 54 % 0.00 in
11:40 46.3 °F 31.0 °F 30.36 in NW 6.4 mph 10.4 mph 55 % 0.00 in
11:45 46.2 °F 30.5 °F 30.36 in NW 6.9 mph 11.5 mph 54 % 0.00 in
11:50 46.1 °F 31.3 °F 30.36 in North 6.4 mph 11.5 mph 56 % 0.00 in
11:55 46.1 °F 31.3 °F 30.36 in WNW 4.4 mph 11.5 mph 56 % 0.00 in
12:00 46.0 °F 32.0 °F 30.37 in WNW 3.9 mph 11.5 mph 58 % 0.00 in
12:05 46.0 °F 31.2 °F 30.37 in NNE 7.4 mph 13.8 mph 56 % 0.00 in
12:06 45.9 °F 30.6 °F 30.37 in NW 9.6 mph 11.5 mph 55 % 0.00 in
12:11 45.9 °F 29.7 °F 30.37 in NW 8.6 mph 21.9 mph 53 % 0.00 in
12:16 45.9 °F 30.2 °F 30.37 in NNW 6.0 mph 10.4 mph 54 % 0.00 in
12:21 46.0 °F 28.4 °F 30.37 in North 8.6 mph 17.3 mph 50 % 0.00 in
12:26 46.0 °F 28.9 °F 30.37 in NNW 7.7 mph 19.6 mph 51 % 0.00 in
12:31 46.1 °F 29.0 °F 30.37 in NW 5.0 mph 11.5 mph 51 % 0.00 in
12:36 46.2 °F 29.1 °F 30.37 in West 6.0 mph 11.5 mph 51 % 0.00 in
12:41 46.3 °F 29.1 °F 30.37 in WSW 6.1 mph 10.4 mph 51 % 0.00 in
12:46 46.3 °F 28.7 °F 30.37 in NNW 6.8 mph 13.0 mph 50 % 0.00 in
12:51 46.4 °F 28.8 °F 30.37 in North 4.7 mph 15.0 mph 50 % 0.00 in
12:56 46.3 °F 29.1 °F 30.38 in WNW 6.4 mph 16.1 mph 51 % 0.00 in
13:02 46.3 °F 29.1 °F 30.38 in WNW 10.5 mph 15.0 mph 51 % 0.00 in
13:07 46.1 °F 28.5 °F 30.38 in NW 10.2 mph 15.0 mph 50 % 0.00 in
13:12 46.0 °F 27.4 °F 30.38 in West 9.1 mph 15.0 mph 48 % 0.00 in
13:17 45.9 °F 28.3 °F 30.38 in WNW 9.4 mph 13.8 mph 50 % 0.00 in
13:22 45.8 °F 28.2 °F 30.39 in NW 9.0 mph 13.0 mph 50 % 0.00 in
13:27 45.8 °F 28.7 °F 30.39 in NW 6.2 mph 12.7 mph 51 % 0.00 in
13:32 45.8 °F 27.7 °F 30.39 in NNW 6.5 mph 13.8 mph 49 % 0.00 in
13:37 45.9 °F 27.8 °F 30.39 in WNW 8.7 mph 19.6 mph 49 % 0.00 in
13:42 45.8 °F 27.7 °F 30.39 in West 5.7 mph 10.4 mph 49 % 0.00 in
13:47 45.8 °F 26.2 °F 30.39 in WNW 9.8 mph 15.0 mph 46 % 0.00 in
13:52 45.6 °F 26.0 °F 30.40 in West 7.0 mph 11.5 mph 46 % 0.00 in
13:57 45.6 °F 27.5 °F 30.40 in WSW 7.3 mph 11.5 mph 49 % 0.00 in
14:02 45.6 °F 27.0 °F 30.40 in WNW 6.6 mph 14.0 mph 48 % 0.00 in
14:08 45.5 °F 26.9 °F 30.41 in NNW 8.7 mph 13.0 mph 48 % 0.00 in
14:13 45.4 °F 27.3 °F 30.41 in NW 7.8 mph 12.7 mph 49 % 0.00 in
14:18 45.3 °F 27.2 °F 30.41 in WNW 7.3 mph 12.0 mph 49 % 0.00 in
14:23 45.2 °F 28.1 °F 30.41 in WNW 9.0 mph 12.7 mph 51 % 0.00 in
14:28 44.9 °F 27.4 °F 30.42 in West 5.7 mph 12.7 mph 50 % 0.00 in
14:33 44.6 °F 27.1 °F 30.42 in WNW 7.1 mph 13.8 mph 50 % 0.00 in
14:38 44.3 °F 26.3 °F 30.42 in WNW 9.0 mph 15.0 mph 49 % 0.00 in
14:43 44.0 °F 26.0 °F 30.42 in West 10.5 mph 18.4 mph 49 % 0.00 in
14:48 43.8 °F 26.3 °F 30.42 in WNW 10.5 mph 16.1 mph 50 % 0.00 in
14:53 43.7 °F 26.3 °F 30.43 in NW 7.5 mph 13.8 mph 50 % 0.00 in
14:58 43.6 °F 26.2 °F 30.43 in NW 7.8 mph 12.7 mph 50 % 0.00 in
15:03 43.4 °F 26.0 °F 30.44 in NW 5.7 mph 10.4 mph 50 % 0.00 in
15:08 43.3 °F 26.4 °F 30.44 in North 5.9 mph 11.5 mph 51 % 0.00 in
15:14 43.2 °F 26.7 °F 30.44 in NNW 2.9 mph 8.1 mph 52 % 0.00 in
15:19 43.1 °F 26.2 °F 30.44 in NW 5.1 mph 12.0 mph 51 % 0.00 in
15:24 42.9 °F 26.5 °F 30.44 in WNW 2.3 mph 6.9 mph 52 % 0.00 in
15:29 42.9 °F 26.9 °F 30.45 in West 3.1 mph 9.2 mph 53 % 0.00 in
15:34 42.8 °F 26.4 °F 30.45 in West 4.8 mph 9.2 mph 52 % 0.00 in
15:39 42.7 °F 27.6 °F 30.45 in WNW 2.0 mph 12.0 mph 55 % 0.00 in
15:44 42.5 °F 27.0 °F 30.45 in WNW 5.4 mph 9.2 mph 54 % 0.00 in
15:49 42.4 °F 26.9 °F 30.46 in NW 3.0 mph 8.0 mph 54 % 0.00 in
15:54 42.3 °F 26.4 °F 30.46 in WNW 4.2 mph 9.2 mph 53 % 0.00 in
15:59 42.2 °F 26.7 °F 30.47 in West 2.1 mph 6.9 mph 54 % 0.00 in
16:04 42.1 °F 26.6 °F 30.47 in West 5.3 mph 11.5 mph 54 % 0.00 in
16:09 42.0 °F 26.1 °F 30.47 in West 5.4 mph 11.5 mph 53 % 0.00 in
16:14 41.9 °F 27.3 °F 30.47 in WNW 3.8 mph 10.4 mph 56 % 0.00 in
16:19 41.8 °F 27.7 °F 30.47 in NNW 3.1 mph 5.8 mph 57 % 0.00 in
16:24 41.6 °F 26.6 °F 30.47 in NNW 4.4 mph 11.5 mph 55 % 0.00 in
16:29 41.5 °F 27.0 °F 30.48 in WNW 7.4 mph 11.5 mph 56 % 0.00 in
16:34 41.3 °F 26.8 °F 30.48 in West 5.5 mph 11.5 mph 56 % 0.00 in
16:39 41.2 °F 27.1 °F 30.48 in NW 4.2 mph 8.1 mph 57 % 0.00 in
16:44 41.1 °F 26.6 °F 30.49 in WNW 6.6 mph 10.4 mph 56 % 0.00 in
16:49 41.0 °F 27.3 °F 30.49 in NNW 3.0 mph 8.1 mph 58 % 0.00 in
16:54 40.9 °F 27.7 °F 30.50 in NW 3.6 mph 10.4 mph 59 % 0.00 in
17:00 40.7 °F 27.9 °F 30.50 in WNW 3.5 mph 9.2 mph 60 % 0.00 in
17:05 40.6 °F 28.2 °F 30.50 in NW 6.3 mph 11.5 mph 61 % 0.00 in
17:10 40.4 °F 27.2 °F 30.50 in NW 6.0 mph 10.4 mph 59 % 0.00 in
17:15 40.3 °F 27.5 °F 30.51 in NNW 4.9 mph 8.1 mph 60 % 0.00 in
17:20 40.2 °F 27.0 °F 30.51 in NNW 5.9 mph 8.1 mph 59 % 0.00 in
17:25 40.1 °F 26.5 °F 30.51 in WNW 3.0 mph 6.9 mph 58 % 0.00 in
17:30 40.0 °F 26.8 °F 30.51 in NW 4.3 mph 6.9 mph 59 % 0.00 in
17:35 39.9 °F 27.1 °F 30.52 in North 3.4 mph 5.8 mph 60 % 0.00 in
17:40 39.7 °F 25.7 °F 30.52 in NW 4.7 mph 10.4 mph 57 % 0.00 in
17:45 39.6 °F 26.0 °F 30.53 in NW 7.3 mph 11.5 mph 58 % 0.00 in
17:50 39.5 °F 25.5 °F 30.53 in North 3.8 mph 9.0 mph 57 % 0.00 in
17:55 39.4 °F 25.4 °F 30.53 in NNE 5.7 mph 9.2 mph 57 % 0.00 in
18:00 39.3 °F 25.7 °F 30.54 in NNW 6.4 mph 9.2 mph 58 % 0.00 in
18:05 39.1 °F 25.1 °F 30.54 in NNE 5.4 mph 11.5 mph 57 % 0.00 in
18:11 38.9 °F 24.5 °F 30.55 in North 6.2 mph 6.2 mph 56 % 0.00 in
18:16 38.7 °F 23.9 °F 30.56 in NNW 8.9 mph 13.0 mph 55 % 0.00 in
18:21 38.5 °F 22.8 °F 30.56 in North 6.1 mph 11.5 mph 53 % 0.00 in
18:26 38.3 °F 23.5 °F 30.56 in West 5.2 mph 9.2 mph 55 % 0.00 in
18:31 38.2 °F 23.9 °F 30.56 in North 3.8 mph 11.5 mph 56 % 0.00 in
18:36 38.1 °F 24.2 °F 30.56 in NNE 7.6 mph 11.5 mph 57 % 0.00 in
18:41 37.9 °F 24.8 °F 30.57 in NNE 9.1 mph 10.0 mph 59 % 0.00 in
18:46 37.5 °F 24.5 °F 30.57 in North 7.1 mph 11.5 mph 59 % 0.00 in
18:51 37.3 °F 23.9 °F 30.57 in North 9.8 mph 13.8 mph 58 % 0.00 in
18:56 37.0 °F 24.0 °F 30.57 in NNE 7.0 mph 10.4 mph 59 % 0.00 in
19:01 36.8 °F 23.4 °F 30.57 in NNW 8.9 mph 11.0 mph 58 % 0.00 in
19:06 36.6 °F 23.2 °F 30.57 in North 8.4 mph 12.7 mph 58 % 0.00 in
19:11 36.5 °F 23.5 °F 30.57 in North 5.3 mph 9.2 mph 59 % 0.00 in
19:16 36.3 °F 23.3 °F 30.58 in NNE 9.8 mph 12.7 mph 59 % 0.00 in
19:21 36.1 °F 23.1 °F 30.58 in NE 5.3 mph 9.0 mph 59 % 0.00 in
19:26 35.9 °F 23.0 °F 30.58 in North 5.5 mph 10.4 mph 59 % 0.00 in
19:31 35.8 °F 22.9 °F 30.59 in North 8.1 mph 11.5 mph 59 % 0.00 in
19:36 35.6 °F 22.3 °F 30.59 in NNE 7.8 mph 12.7 mph 58 % 0.00 in
19:42 35.4 °F 22.5 °F 30.59 in North 8.8 mph 11.5 mph 59 % 0.00 in
19:47 35.3 °F 22.4 °F 30.59 in NNE 8.6 mph 13.0 mph 59 % 0.00 in
19:52 35.2 °F 21.9 °F 30.60 in NNW 8.7 mph 11.5 mph 58 % 0.00 in
19:57 35.1 °F 22.2 °F 30.60 in NNE 10.3 mph 15.0 mph 59 % 0.00 in
20:02 35.0 °F 22.1 °F 30.60 in NNE 9.3 mph 13.0 mph 59 % 0.00 in
20:07 34.9 °F 21.6 °F 30.60 in NNE 10.0 mph 17.3 mph 58 % 0.00 in
20:12 34.7 °F 21.0 °F 30.60 in North 9.2 mph 15.0 mph 57 % 0.00 in
20:17 34.6 °F 21.3 °F 30.60 in NNW 9.1 mph 15.0 mph 58 % 0.00 in
20:22 34.5 °F 21.6 °F 30.62 in North 7.2 mph 12.0 mph 59 % 0.00 in
20:27 34.4 °F 21.9 °F 30.62 in North 5.6 mph 10.4 mph 60 % 0.00 in
20:32 34.4 °F 22.3 °F 30.62 in NNE 6.8 mph 11.5 mph 61 % 0.00 in
20:37 34.3 °F 21.8 °F 30.62 in NNE 9.1 mph 16.1 mph 60 % 0.00 in
20:42 34.1 °F 21.3 °F 30.62 in North 8.1 mph 12.7 mph 59 % 0.00 in
20:47 34.0 °F 20.8 °F 30.62 in North 10.4 mph 15.0 mph 58 % 0.00 in
20:52 33.9 °F 20.7 °F 30.63 in NNE 6.7 mph 11.5 mph 58 % 0.00 in
20:57 33.8 °F 20.6 °F 30.63 in NNE 7.6 mph 12.0 mph 58 % 0.00 in
21:02 33.8 °F 20.6 °F 30.63 in NNE 5.3 mph 10.0 mph 58 % 0.00 in
21:07 33.7 °F 20.9 °F 30.63 in NNE 3.9 mph 6.9 mph 59 % 0.00 in
21:13 33.7 °F 21.3 °F 30.63 in NNE 3.9 mph 9.2 mph 60 % 0.00 in
21:18 33.6 °F 21.2 °F 30.64 in North 5.5 mph 10.4 mph 60 % 0.00 in
21:23 33.5 °F 21.1 °F 30.64 in North 4.8 mph 12.7 mph 60 % 0.00 in
21:28 33.4 °F 20.6 °F 30.64 in NNE 10.2 mph 15.0 mph 59 % 0.00 in
21:33 33.3 °F 20.5 °F 30.64 in NNE 9.4 mph 11.5 mph 59 % 0.00 in
21:38 33.2 °F 20.8 °F 30.64 in NNE 8.7 mph 17.3 mph 60 % 0.00 in
21:43 33.1 °F 19.9 °F 30.64 in North 8.4 mph 12.7 mph 58 % 0.00 in
21:48 33.0 °F 20.2 °F 30.64 in North 7.0 mph 12.7 mph 59 % 0.00 in
21:53 32.9 °F 20.1 °F 30.64 in North 8.4 mph 11.5 mph 59 % 0.00 in
21:58 32.8 °F 20.4 °F 30.64 in NNE 7.3 mph 10.0 mph 60 % 0.00 in
22:03 32.8 °F 20.0 °F 30.65 in NNE 8.8 mph 12.7 mph 59 % 0.00 in
22:08 32.6 °F 19.8 °F 30.65 in NE 9.7 mph 12.7 mph 59 % 0.00 in
22:13 32.5 °F 19.3 °F 30.65 in NE 7.0 mph 11.5 mph 58 % 0.00 in
22:18 32.4 °F 19.7 °F 30.66 in NNE 6.8 mph 9.2 mph 59 % 0.00 in
22:24 32.4 °F 19.7 °F 30.65 in NNW 8.6 mph 11.5 mph 59 % 0.00 in
22:29 32.3 °F 19.2 °F 30.65 in NNE 7.2 mph 10.0 mph 58 % 0.00 in
22:34 32.2 °F 19.1 °F 30.66 in North 7.9 mph 11.5 mph 58 % 0.00 in
22:39 32.1 °F 19.0 °F 30.65 in North 8.4 mph 12.7 mph 58 % 0.00 in
22:44 32.1 °F 18.6 °F 30.65 in North 8.1 mph 11.5 mph 57 % 0.00 in
22:49 32.0 °F 18.5 °F 30.66 in North 6.9 mph 11.5 mph 57 % 0.00 in
22:54 31.9 °F 18.8 °F 30.66 in NNE 7.9 mph 11.5 mph 58 % 0.00 in
22:59 31.8 °F 18.3 °F 30.66 in NNE 9.9 mph 16.1 mph 57 % 0.00 in
23:04 31.8 °F 18.7 °F 30.66 in NNE 5.8 mph 10.4 mph 58 % 0.00 in
23:09 31.7 °F 18.2 °F 30.65 in NNE 6.5 mph 10.0 mph 57 % 0.00 in
23:14 31.6 °F 18.1 °F 30.66 in North 4.3 mph 10.4 mph 57 % 0.00 in
23:19 31.5 °F 18.0 °F 30.66 in North 7.0 mph 13.0 mph 57 % 0.00 in
23:24 31.4 °F 18.3 °F 30.65 in NNE 4.4 mph 11.5 mph 58 % 0.00 in
23:29 31.4 °F 17.9 °F 30.66 in NNE 7.0 mph 12.0 mph 57 % 0.00 in
23:34 31.3 °F 18.2 °F 30.66 in NNE 8.0 mph 12.0 mph 58 % 0.00 in
23:39 31.2 °F 18.5 °F 30.66 in NNE 7.0 mph 12.0 mph 59 % 0.00 in
23:44 31.2 °F 17.7 °F 30.66 in NNE 9.0 mph 14.0 mph 57 % 0.00 in
23:49 31.1 °F 17.6 °F 30.66 in NNE 7.3 mph 12.7 mph 57 % 0.00 in
23:54 31.1 °F 17.6 °F 30.66 in North 8.0 mph 14.0 mph 57 % 0.00 in
23:59 31.1 °F 18.0 °F 30.67 in North 7.2 mph 9.2 mph 58 % 0.00 in
Crab Meadow Weather
Compliments of Weather Underground - 3 mb

Script developed by  Jim McMurry - jmcmurry@mwt.net Adapted for the template by  Wim van der Kuil - Leuven-Template.eu

Hurricanes: A large hurricane stirs up more than a million cubic miles of the atmosphere every second. Hurricane winds can kick up 50 foot or higher waves in the open ocean.